Strona główna
METAR-TAF:

METAR-TAF

Lotnisko :

Bejrut, Liban

Szerokość geograficzna: 33-49N, Długość geograficzna: 035-29E, wysokość: 29 m

Aktualna obserwacja pogody

Raport powstał 49 minut temu, godzina 00:00 UTC
Wiatr 6 kt od południowy wschód, zmienny między wschodnio-północny wschód i południowo-południowy wschód
Temperatura 24°C
Wilgotność 69%
Ciśnienie 1015 hPa
Widzialność 10 km lub więcej
Mało chmury na wysokości 2600 ft

METAR: OLBA 210000Z 14006KT 060V160 9999 FEW026 24/18 Q1015 NOSIG

czas: 03:49 (00:49 UTC)

Prognoza

Raport powstał 2 godziny i 49 minut temu, godzina 22:00 UTC
Prognoza ważna od 21 godzina 00 UTC do 22 godzina 06 UTC
Wiatr 5 kt od południowy wschód
Widzialność: 8000 m
Rozproszone chmury na wysokości 3000 ft
Stopniowe zmiany
od 21 godzina 06 UTC do 21 godzina 08 UTC
Wiatr 14 kt od zachodnio-południowy zachód
Stopniowe zmiany
od 21 godzina 20 UTC do 21 godzina 23 UTC
Wiatr 5 kt od południowo-południowy wschód

TAF: OLBA 202200Z 2100/2206 14005KT 8000 SCT030 BECMG 2106/2108 25014KT BECMG 2120/2123 15005KT

Obserwacja i prognoza pogody dla ponad 4000 lotnisk (raport METAR i TAF).

Dostępne stacje oznaczono żółtymi i czerwonymi punktami na mapie.

Najedź kursorem aby zobaczyć nazwę stacji.

Kliknij aby zobaczyć obserwacje i prognozy pogody.

Aby zmienić mapę: kliknij na zielony przycisk z czarnym krzyżykiem, aby powiększyć; na zielony przycisk z myślnikiem, aby pomniejszyć; na zielone strzałki, aby przejść do map sąsiednich.


METAR-TAF: